sensor_id;sensor_type;location;lat;lon;timestamp;P1;durP1;ratioP1;P2;durP2;ratioP2
3201;SDS011;34843;48.744;8.958;2022-09-09T00:04:40;7.53;;;2.20;;
3201;SDS011;34843;48.744;8.958;2022-09-09T00:07:25;5.37;;;1.30;;
3201;SDS011;34843;48.744;8.958;2022-09-09T00:10:19;9.70;;;1.50;;
3201;SDS011;34843;48.744;8.958;2022-09-09T00:15:22;6.70;;;2.50;;
3201;SDS011;34843;48.744;8.958;2022-09-09T00:20:52;1.50;;;1.30;;
3201;SDS011;34843;48.744;8.958;2022-09-09T00:23:32;2.63;;;1.43;;
3201;SDS011;34843;48.744;8.958;2022-09-09T00:28:36;1.40;;;1.30;;
3201;SDS011;34843;48.744;8.958;2022-09-09T00:31:16;4.40;;;1.47;;
3201;SDS011;34843;48.744;8.958;2022-09-09T00:33:47;1.47;;;1.37;;
3201;SDS011;34843;48.744;8.958;2022-09-09T00:36:17;4.53;;;2.60;;
3201;SDS011;34843;48.744;8.958;2022-09-09T00:38:48;1.93;;;1.47;;
3201;SDS011;34843;48.744;8.958;2022-09-09T00:50:06;2.37;;;1.33;;
3201;SDS011;34843;48.744;8.958;2022-09-09T00:57:44;1.97;;;1.33;;
3201;SDS011;34843;48.744;8.958;2022-09-09T01:00:21;6.53;;;1.57;;
3201;SDS011;34843;48.744;8.958;2022-09-09T01:05:38;2.10;;;1.17;;
3201;SDS011;34843;48.744;8.958;2022-09-09T01:11:00;5.90;;;1.43;;
3201;SDS011;34843;48.744;8.958;2022-09-09T01:13:31;2.00;;;1.20;;
3201;SDS011;34843;48.744;8.958;2022-09-09T01:16:03;6.57;;;1.30;;
3201;SDS011;34843;48.744;8.958;2022-09-09T01:18:33;3.40;;;1.17;;
3201;SDS011;34843;48.744;8.958;2022-09-09T01:29:02;2.97;;;1.63;;
3201;SDS011;34843;48.744;8.958;2022-09-09T01:31:34;2.60;;;1.27;;
3201;SDS011;34843;48.744;8.958;2022-09-09T01:34:08;2.80;;;1.23;;
3201;SDS011;34843;48.744;8.958;2022-09-09T01:36:39;6.40;;;1.33;;
3201;SDS011;34843;48.744;8.958;2022-09-09T01:39:06;2.30;;;1.47;;
3201;SDS011;34843;48.744;8.958;2022-09-09T01:41:32;3.07;;;1.30;;
3201;SDS011;34843;48.744;8.958;2022-09-09T01:43:57;5.30;;;1.33;;
3201;SDS011;34843;48.744;8.958;2022-09-09T01:46:23;2.73;;;1.23;;
3201;SDS011;34843;48.744;8.958;2022-09-09T01:48:52;2.30;;;1.10;;
3201;SDS011;34843;48.744;8.958;2022-09-09T01:51:21;7.70;;;1.60;;
3201;SDS011;34843;48.744;8.958;2022-09-09T01:53:47;1.40;;;1.30;;
3201;SDS011;34843;48.744;8.958;2022-09-09T01:59:41;5.93;;;2.00;;
3201;SDS011;34843;48.744;8.958;2022-09-09T02:02:19;6.00;;;1.60;;
3201;SDS011;34843;48.744;8.958;2022-09-09T02:04:57;8.63;;;1.30;;
3201;SDS011;34843;48.744;8.958;2022-09-09T02:07:50;1.67;;;1.10;;
3201;SDS011;34843;48.744;8.958;2022-09-09T02:13:11;0.80;;;0.80;;
3201;SDS011;34843;48.744;8.958;2022-09-09T02:15:42;1.63;;;1.20;;
3201;SDS011;34843;48.744;8.958;2022-09-09T02:18:12;3.23;;;1.20;;
3201;SDS011;34843;48.744;8.958;2022-09-09T02:20:40;6.73;;;0.97;;
3201;SDS011;34843;48.744;8.958;2022-09-09T02:23:07;3.13;;;1.00;;
3201;SDS011;34843;48.744;8.958;2022-09-09T02:25:35;2.47;;;1.07;;
3201;SDS011;34843;48.744;8.958;2022-09-09T02:28:02;4.40;;;1.53;;
3201;SDS011;34843;48.744;8.958;2022-09-09T02:30:31;2.13;;;0.90;;
3201;SDS011;34843;48.744;8.958;2022-09-09T02:32:59;1.00;;;0.90;;
3201;SDS011;34843;48.744;8.958;2022-09-09T02:35:26;1.20;;;0.90;;
3201;SDS011;34843;48.744;8.958;2022-09-09T02:37:56;3.80;;;1.00;;
3201;SDS011;34843;48.744;8.958;2022-09-09T02:40:24;1.77;;;0.80;;
3201;SDS011;34843;48.744;8.958;2022-09-09T02:42:50;1.27;;;0.80;;
3201;SDS011;34843;48.744;8.958;2022-09-09T02:45:19;2.30;;;0.80;;
3201;SDS011;34843;48.744;8.958;2022-09-09T02:50:35;1.73;;;0.90;;
3201;SDS011;34843;48.744;8.958;2022-09-09T02:53:19;3.60;;;0.83;;
3201;SDS011;34843;48.744;8.958;2022-09-09T02:56:11;6.50;;;1.15;;
3201;SDS011;34843;48.744;8.958;2022-09-09T02:58:41;1.33;;;0.80;;
3201;SDS011;34843;48.744;8.958;2022-09-09T03:01:07;3.07;;;1.00;;
3201;SDS011;34843;48.744;8.958;2022-09-09T03:03:33;1.43;;;1.00;;
3201;SDS011;34843;48.744;8.958;2022-09-09T03:05:59;2.30;;;1.10;;
3201;SDS011;34843;48.744;8.958;2022-09-09T03:08:25;2.17;;;1.20;;
3201;SDS011;34843;48.744;8.958;2022-09-09T03:10:53;3.53;;;1.20;;
3201;SDS011;34843;48.744;8.958;2022-09-09T03:13:19;3.20;;;1.23;;
3201;SDS011;34843;48.744;8.958;2022-09-09T03:15:45;4.20;;;1.10;;
3201;SDS011;34843;48.744;8.958;2022-09-09T03:18:10;1.60;;;1.30;;
3201;SDS011;34843;48.744;8.958;2022-09-09T03:20:36;7.93;;;2.10;;
3201;SDS011;34843;48.744;8.958;2022-09-09T03:23:01;3.27;;;1.40;;
3201;SDS011;34843;48.744;8.958;2022-09-09T03:25:27;1.43;;;1.10;;
3201;SDS011;34843;48.744;8.958;2022-09-09T03:27:54;2.00;;;1.03;;
3201;SDS011;34843;48.744;8.958;2022-09-09T03:30:23;2.60;;;1.20;;
3201;SDS011;34843;48.744;8.958;2022-09-09T03:32:50;2.77;;;1.43;;
3201;SDS011;34843;48.744;8.958;2022-09-09T03:35:17;1.67;;;0.90;;
3201;SDS011;34843;48.744;8.958;2022-09-09T03:37:42;1.60;;;1.07;;
3201;SDS011;34843;48.744;8.958;2022-09-09T03:40:08;2.90;;;1.07;;
3201;SDS011;34843;48.744;8.958;2022-09-09T03:42:35;2.53;;;1.63;;
3201;SDS011;34843;48.744;8.958;2022-09-09T03:45:02;1.53;;;1.10;;
3201;SDS011;34843;48.744;8.958;2022-09-09T03:47:28;1.27;;;1.17;;
3201;SDS011;34843;48.744;8.958;2022-09-09T03:49:54;3.27;;;1.30;;
3201;SDS011;34843;48.744;8.958;2022-09-09T03:52:20;2.03;;;1.40;;
3201;SDS011;34843;48.744;8.958;2022-09-09T03:54:49;2.10;;;1.13;;
3201;SDS011;34843;48.744;8.958;2022-09-09T03:57:16;0.90;;;0.90;;
3201;SDS011;34843;48.744;8.958;2022-09-09T03:59:42;2.00;;;1.60;;
3201;SDS011;34843;48.744;8.958;2022-09-09T04:02:08;4.03;;;1.60;;
3201;SDS011;34843;48.744;8.958;2022-09-09T04:04:34;2.50;;;1.30;;
3201;SDS011;34843;48.744;8.958;2022-09-09T04:06:59;2.00;;;1.90;;
3201;SDS011;34843;48.744;8.958;2022-09-09T04:09:25;3.50;;;2.30;;
3201;SDS011;34843;48.744;8.958;2022-09-09T04:11:51;5.63;;;2.90;;
3201;SDS011;34843;48.744;8.958;2022-09-09T04:14:17;5.33;;;3.83;;
3201;SDS011;34843;48.744;8.958;2022-09-09T04:16:43;11.27;;;4.93;;
3201;SDS011;34843;48.744;8.958;2022-09-09T04:19:09;9.13;;;3.40;;
3201;SDS011;34843;48.744;8.958;2022-09-09T04:21:37;10.20;;;4.17;;
3201;SDS011;34843;48.744;8.958;2022-09-09T04:24:04;9.20;;;2.63;;
3201;SDS011;34843;48.744;8.958;2022-09-09T04:26:30;9.67;;;2.77;;
3201;SDS011;34843;48.744;8.958;2022-09-09T04:28:56;5.23;;;2.27;;
3201;SDS011;34843;48.744;8.958;2022-09-09T04:31:22;6.63;;;2.60;;
3201;SDS011;34843;48.744;8.958;2022-09-09T04:33:51;8.47;;;2.63;;
3201;SDS011;34843;48.744;8.958;2022-09-09T04:36:17;2.73;;;1.90;;
3201;SDS011;34843;48.744;8.958;2022-09-09T04:38:44;2.00;;;1.37;;
3201;SDS011;34843;48.744;8.958;2022-09-09T04:41:10;3.73;;;1.40;;
3201;SDS011;34843;48.744;8.958;2022-09-09T04:43:36;1.67;;;1.57;;
3201;SDS011;34843;48.744;8.958;2022-09-09T04:46:02;1.70;;;1.60;;
3201;SDS011;34843;48.744;8.958;2022-09-09T04:48:28;3.83;;;1.23;;
3201;SDS011;34843;48.744;8.958;2022-09-09T04:50:59;3.60;;;1.77;;
3201;SDS011;34843;48.744;8.958;2022-09-09T04:53:26;5.07;;;1.43;;
3201;SDS011;34843;48.744;8.958;2022-09-09T04:56:05;2.60;;;1.40;;
3201;SDS011;34843;48.744;8.958;2022-09-09T04:58:34;4.63;;;1.50;;
3201;SDS011;34843;48.744;8.958;2022-09-09T05:01:07;3.80;;;1.70;;
3201;SDS011;34843;48.744;8.958;2022-09-09T05:03:35;2.60;;;1.70;;
3201;SDS011;34843;48.744;8.958;2022-09-09T05:06:04;6.97;;;1.93;;
3201;SDS011;34843;48.744;8.958;2022-09-09T05:08:36;3.33;;;1.40;;
3201;SDS011;34843;48.744;8.958;2022-09-09T05:11:02;1.50;;;1.40;;
3201;SDS011;34843;48.744;8.958;2022-09-09T05:13:28;1.80;;;1.60;;
3201;SDS011;34843;48.744;8.958;2022-09-09T05:15:56;3.57;;;2.43;;
3201;SDS011;34843;48.744;8.958;2022-09-09T05:18:21;1.53;;;1.30;;
3201;SDS011;34843;48.744;8.958;2022-09-09T05:20:47;4.17;;;1.87;;
3201;SDS011;34843;48.744;8.958;2022-09-09T05:23:13;3.53;;;1.93;;
3201;SDS011;34843;48.744;8.958;2022-09-09T05:25:39;1.30;;;1.20;;
3201;SDS011;34843;48.744;8.958;2022-09-09T05:28:06;2.10;;;1.23;;
3201;SDS011;34843;48.744;8.958;2022-09-09T05:30:32;1.33;;;1.23;;
3201;SDS011;34843;48.744;8.958;2022-09-09T05:32:58;10.43;;;1.53;;
3201;SDS011;34843;48.744;8.958;2022-09-09T05:35:24;1.83;;;1.20;;
3201;SDS011;34843;48.744;8.958;2022-09-09T05:37:50;2.90;;;1.20;;
3201;SDS011;34843;48.744;8.958;2022-09-09T05:40:15;2.77;;;1.27;;
3201;SDS011;34843;48.744;8.958;2022-09-09T05:42:41;5.07;;;1.40;;
3201;SDS011;34843;48.744;8.958;2022-09-09T05:45:07;4.57;;;1.67;;
3201;SDS011;34843;48.744;8.958;2022-09-09T05:47:33;2.07;;;1.17;;
3201;SDS011;34843;48.744;8.958;2022-09-09T05:50:00;4.10;;;2.03;;
3201;SDS011;34843;48.744;8.958;2022-09-09T05:52:26;2.03;;;1.70;;
3201;SDS011;34843;48.744;8.958;2022-09-09T05:54:52;5.90;;;1.50;;
3201;SDS011;34843;48.744;8.958;2022-09-09T05:57:19;2.57;;;1.27;;
3201;SDS011;34843;48.744;8.958;2022-09-09T05:59:45;1.97;;;1.67;;
3201;SDS011;34843;48.744;8.958;2022-09-09T06:02:10;2.00;;;1.10;;
3201;SDS011;34843;48.744;8.958;2022-09-09T06:04:37;3.50;;;1.63;;
3201;SDS011;34843;48.744;8.958;2022-09-09T06:07:03;2.33;;;1.70;;
3201;SDS011;34843;48.744;8.958;2022-09-09T06:09:30;3.87;;;1.57;;
3201;SDS011;34843;48.744;8.958;2022-09-09T06:11:55;1.40;;;1.30;;
3201;SDS011;34843;48.744;8.958;2022-09-09T06:14:23;4.17;;;1.87;;
3201;SDS011;34843;48.744;8.958;2022-09-09T06:16:50;2.00;;;1.13;;
3201;SDS011;34843;48.744;8.958;2022-09-09T06:19:16;2.90;;;1.70;;
3201;SDS011;34843;48.744;8.958;2022-09-09T06:21:42;2.40;;;1.23;;
3201;SDS011;34843;48.744;8.958;2022-09-09T06:24:09;7.90;;;1.43;;
3201;SDS011;34843;48.744;8.958;2022-09-09T06:26:36;2.57;;;1.23;;
3201;SDS011;34843;48.744;8.958;2022-09-09T06:29:05;3.33;;;1.10;;
3201;SDS011;34843;48.744;8.958;2022-09-09T06:31:32;3.73;;;1.63;;
3201;SDS011;34843;48.744;8.958;2022-09-09T06:33:59;2.23;;;1.20;;
3201;SDS011;34843;48.744;8.958;2022-09-09T06:36:26;2.77;;;1.63;;
3201;SDS011;34843;48.744;8.958;2022-09-09T06:38:56;4.07;;;1.50;;
3201;SDS011;34843;48.744;8.958;2022-09-09T06:41:23;1.60;;;1.40;;
3201;SDS011;34843;48.744;8.958;2022-09-09T06:43:51;2.40;;;1.43;;
3201;SDS011;34843;48.744;8.958;2022-09-09T06:46:18;4.10;;;1.63;;
3201;SDS011;34843;48.744;8.958;2022-09-09T06:48:45;1.73;;;1.63;;
3201;SDS011;34843;48.744;8.958;2022-09-09T06:53:38;1.97;;;1.50;;
3201;SDS011;34843;48.744;8.958;2022-09-09T06:56:25;2.83;;;1.43;;
3201;SDS011;34843;48.744;8.958;2022-09-09T06:58:53;1.20;;;1.00;;
3201;SDS011;34843;48.744;8.958;2022-09-09T07:01:41;5.53;;;1.50;;
3201;SDS011;34843;48.744;8.958;2022-09-09T07:04:16;1.93;;;1.33;;
3201;SDS011;34843;48.744;8.958;2022-09-09T07:06:43;1.77;;;1.40;;
3201;SDS011;34843;48.744;8.958;2022-09-09T07:09:10;3.43;;;1.17;;
3201;SDS011;34843;48.744;8.958;2022-09-09T07:11:38;1.30;;;1.20;;
3201;SDS011;34843;48.744;8.958;2022-09-09T07:14:08;1.20;;;1.10;;
3201;SDS011;34843;48.744;8.958;2022-09-09T07:16:36;2.40;;;1.03;;
3201;SDS011;34843;48.744;8.958;2022-09-09T07:19:02;6.70;;;1.30;;
3201;SDS011;34843;48.744;8.958;2022-09-09T07:21:29;1.87;;;1.30;;
3201;SDS011;34843;48.744;8.958;2022-09-09T07:23:56;3.93;;;1.53;;
3201;SDS011;34843;48.744;8.958;2022-09-09T07:26:23;1.43;;;1.03;;
3201;SDS011;34843;48.744;8.958;2022-09-09T07:28:50;5.57;;;1.30;;
3201;SDS011;34843;48.744;8.958;2022-09-09T07:31:20;1.67;;;1.00;;
3201;SDS011;34843;48.744;8.958;2022-09-09T07:33:51;3.60;;;1.33;;
3201;SDS011;34843;48.744;8.958;2022-09-09T07:36:18;1.53;;;1.30;;
3201;SDS011;34843;48.744;8.958;2022-09-09T07:38:49;6.20;;;1.27;;
3201;SDS011;34843;48.744;8.958;2022-09-09T07:41:21;1.30;;;1.10;;
3201;SDS011;34843;48.744;8.958;2022-09-09T07:43:48;3.47;;;1.47;;
3201;SDS011;34843;48.744;8.958;2022-09-09T07:46:16;2.07;;;1.33;;
3201;SDS011;34843;48.744;8.958;2022-09-09T07:48:44;3.70;;;1.00;;
3201;SDS011;34843;48.744;8.958;2022-09-09T07:51:18;1.40;;;1.17;;
3201;SDS011;34843;48.744;8.958;2022-09-09T07:53:47;0.80;;;0.80;;
3201;SDS011;34843;48.744;8.958;2022-09-09T07:56:14;2.00;;;1.00;;
3201;SDS011;34843;48.744;8.958;2022-09-09T07:58:42;9.57;;;1.20;;
3201;SDS011;34843;48.744;8.958;2022-09-09T08:01:11;2.43;;;1.20;;
3201;SDS011;34843;48.744;8.958;2022-09-09T08:03:38;2.30;;;2.10;;
3201;SDS011;34843;48.744;8.958;2022-09-09T08:06:05;1.17;;;1.07;;
3201;SDS011;34843;48.744;8.958;2022-09-09T08:08:32;2.67;;;1.30;;
3201;SDS011;34843;48.744;8.958;2022-09-09T08:11:06;5.47;;;1.13;;
3201;SDS011;34843;48.744;8.958;2022-09-09T08:13:36;3.20;;;1.53;;
3201;SDS011;34843;48.744;8.958;2022-09-09T08:16:04;3.80;;;1.03;;
3201;SDS011;34843;48.744;8.958;2022-09-09T08:18:40;1.07;;;1.00;;
3201;SDS011;34843;48.744;8.958;2022-09-09T08:21:07;3.33;;;1.10;;
3201;SDS011;34843;48.744;8.958;2022-09-09T08:23:38;4.90;;;1.30;;
3201;SDS011;34843;48.744;8.958;2022-09-09T08:26:07;2.50;;;1.10;;
3201;SDS011;34843;48.744;8.958;2022-09-09T08:28:40;2.73;;;1.00;;
3201;SDS011;34843;48.744;8.958;2022-09-09T08:31:11;1.13;;;0.90;;
3201;SDS011;34843;48.744;8.958;2022-09-09T08:33:39;2.77;;;1.10;;
3201;SDS011;34843;48.744;8.958;2022-09-09T08:36:06;2.60;;;1.57;;
3201;SDS011;34843;48.744;8.958;2022-09-09T08:38:34;1.90;;;0.90;;
3201;SDS011;34843;48.744;8.958;2022-09-09T08:43:52;2.93;;;1.10;;
3201;SDS011;34843;48.744;8.958;2022-09-09T08:46:32;2.20;;;0.90;;
3201;SDS011;34843;48.744;8.958;2022-09-09T08:49:16;2.30;;;0.97;;
3201;SDS011;34843;48.744;8.958;2022-09-09T08:51:58;1.80;;;1.00;;
3201;SDS011;34843;48.744;8.958;2022-09-09T08:54:24;12.50;;;6.10;;
3201;SDS011;34843;48.744;8.958;2022-09-09T08:56:55;6.10;;;2.43;;
3201;SDS011;34843;48.744;8.958;2022-09-09T08:59:21;5.57;;;1.53;;
3201;SDS011;34843;48.744;8.958;2022-09-09T09:02:04;2.80;;;0.90;;
3201;SDS011;34843;48.744;8.958;2022-09-09T09:11:26;3.17;;;1.20;;
3201;SDS011;34843;48.744;8.958;2022-09-09T09:14:01;3.87;;;1.20;;
3201;SDS011;34843;48.744;8.958;2022-09-09T09:16:45;2.83;;;1.47;;
3201;SDS011;34843;48.744;8.958;2022-09-09T09:19:23;2.40;;;0.87;;
3201;SDS011;34843;48.744;8.958;2022-09-09T09:21:55;5.50;;;1.10;;
3201;SDS011;34843;48.744;8.958;2022-09-09T09:27:11;1.77;;;0.60;;
3201;SDS011;34843;48.744;8.958;2022-09-09T09:29:38;6.77;;;0.80;;
3201;SDS011;34843;48.744;8.958;2022-09-09T09:32:07;2.03;;;1.00;;
3201;SDS011;34843;48.744;8.958;2022-09-09T09:34:38;0.87;;;0.60;;
3201;SDS011;34843;48.744;8.958;2022-09-09T09:37:07;2.00;;;0.80;;
3201;SDS011;34843;48.744;8.958;2022-09-09T09:39:42;2.70;;;0.87;;
3201;SDS011;34843;48.744;8.958;2022-09-09T09:42:11;0.90;;;0.80;;
3201;SDS011;34843;48.744;8.958;2022-09-09T09:44:39;0.80;;;0.80;;
3201;SDS011;34843;48.744;8.958;2022-09-09T09:47:06;1.70;;;0.97;;
3201;SDS011;34843;48.744;8.958;2022-09-09T09:49:50;2.93;;;1.03;;
3201;SDS011;34843;48.744;8.958;2022-09-09T09:52:22;0.80;;;0.77;;
3201;SDS011;34843;48.744;8.958;2022-09-09T09:54:49;3.60;;;1.50;;
3201;SDS011;34843;48.744;8.958;2022-09-09T09:57:17;2.17;;;1.40;;
3201;SDS011;34843;48.744;8.958;2022-09-09T09:59:43;3.37;;;0.83;;
3201;SDS011;34843;48.744;8.958;2022-09-09T10:02:14;1.97;;;0.90;;
3201;SDS011;34843;48.744;8.958;2022-09-09T10:04:45;3.40;;;1.03;;
3201;SDS011;34843;48.744;8.958;2022-09-09T10:07:20;3.53;;;1.00;;
3201;SDS011;34843;48.744;8.958;2022-09-09T10:09:53;2.23;;;1.53;;
3201;SDS011;34843;48.744;8.958;2022-09-09T10:32:01;3.03;;;1.27;;
3201;SDS011;34843;48.744;8.958;2022-09-09T10:34:52;4.43;;;1.40;;
3201;SDS011;34843;48.744;8.958;2022-09-09T10:42:56;3.40;;;0.73;;
3201;SDS011;34843;48.744;8.958;2022-09-09T10:51:02;1.40;;;0.80;;
3201;SDS011;34843;48.744;8.958;2022-09-09T10:53:53;2.43;;;1.23;;
3201;SDS011;34843;48.744;8.958;2022-09-09T10:56:28;3.90;;;1.03;;
3201;SDS011;34843;48.744;8.958;2022-09-09T10:58:56;9.63;;;1.40;;
3201;SDS011;34843;48.744;8.958;2022-09-09T11:01:30;1.23;;;0.73;;
3201;SDS011;34843;48.744;8.958;2022-09-09T11:04:11;4.37;;;1.17;;
3201;SDS011;34843;48.744;8.958;2022-09-09T11:06:59;5.00;;;0.90;;
3201;SDS011;34843;48.744;8.958;2022-09-09T11:09:32;3.17;;;0.70;;
3201;SDS011;34843;48.744;8.958;2022-09-09T11:12:04;2.83;;;0.90;;
3201;SDS011;34843;48.744;8.958;2022-09-09T11:17:10;6.23;;;0.80;;
3201;SDS011;34843;48.744;8.958;2022-09-09T11:19:42;8.40;;;1.10;;
3201;SDS011;34843;48.744;8.958;2022-09-09T11:22:16;3.70;;;0.73;;
3201;SDS011;34843;48.744;8.958;2022-09-09T11:25:03;6.63;;;1.37;;
3201;SDS011;34843;48.744;8.958;2022-09-09T11:30:22;0.90;;;0.70;;
3201;SDS011;34843;48.744;8.958;2022-09-09T11:42:15;1.07;;;0.73;;
3201;SDS011;34843;48.744;8.958;2022-09-09T11:44:43;4.17;;;1.00;;
3201;SDS011;34843;48.744;8.958;2022-09-09T11:47:16;1.50;;;0.70;;
3201;SDS011;34843;48.744;8.958;2022-09-09T11:49:47;0.97;;;0.67;;
3201;SDS011;34843;48.744;8.958;2022-09-09T11:54:50;0.80;;;0.50;;
3201;SDS011;34843;48.744;8.958;2022-09-09T11:57:30;4.10;;;0.90;;
3201;SDS011;34843;48.744;8.958;2022-09-09T11:59:59;8.60;;;1.50;;
3201;SDS011;34843;48.744;8.958;2022-09-09T12:02:26;1.27;;;0.97;;
3201;SDS011;34843;48.744;8.958;2022-09-09T12:09:52;7.03;;;1.63;;
3201;SDS011;34843;48.744;8.958;2022-09-09T12:12:28;0.70;;;0.50;;
3201;SDS011;34843;48.744;8.958;2022-09-09T12:17:26;0.60;;;0.50;;
3201;SDS011;34843;48.744;8.958;2022-09-09T12:20:00;2.07;;;0.80;;
3201;SDS011;34843;48.744;8.958;2022-09-09T12:25:58;2.30;;;0.77;;
3201;SDS011;34843;48.744;8.958;2022-09-09T12:33:45;5.63;;;0.80;;
3201;SDS011;34843;48.744;8.958;2022-09-09T12:36:16;3.13;;;0.70;;
3201;SDS011;34843;48.744;8.958;2022-09-09T12:38:56;0.73;;;0.60;;
3201;SDS011;34843;48.744;8.958;2022-09-09T12:41:35;2.63;;;0.70;;
3201;SDS011;34843;48.744;8.958;2022-09-09T12:44:04;1.17;;;0.77;;
3201;SDS011;34843;48.744;8.958;2022-09-09T12:46:35;3.10;;;0.80;;
3201;SDS011;34843;48.744;8.958;2022-09-09T12:49:05;1.63;;;0.80;;
3201;SDS011;34843;48.744;8.958;2022-09-09T12:51:47;2.07;;;0.70;;
3201;SDS011;34843;48.744;8.958;2022-09-09T12:54:14;2.10;;;0.80;;
3201;SDS011;34843;48.744;8.958;2022-09-09T12:56:40;2.30;;;0.83;;
3201;SDS011;34843;48.744;8.958;2022-09-09T12:59:21;1.70;;;0.80;;
3201;SDS011;34843;48.744;8.958;2022-09-09T13:01:58;1.93;;;0.70;;
3201;SDS011;34843;48.744;8.958;2022-09-09T13:04:24;2.10;;;0.70;;
3201;SDS011;34843;48.744;8.958;2022-09-09T13:06:49;2.57;;;0.87;;
3201;SDS011;34843;48.744;8.958;2022-09-09T13:09:17;1.77;;;0.80;;
3201;SDS011;34843;48.744;8.958;2022-09-09T13:11:44;1.80;;;0.70;;
3201;SDS011;34843;48.744;8.958;2022-09-09T13:14:16;1.13;;;0.63;;
3201;SDS011;34843;48.744;8.958;2022-09-09T13:16:54;1.63;;;0.70;;
3201;SDS011;34843;48.744;8.958;2022-09-09T13:19:21;6.20;;;1.43;;
3201;SDS011;34843;48.744;8.958;2022-09-09T13:21:47;2.60;;;1.10;;
3201;SDS011;34843;48.744;8.958;2022-09-09T13:24:23;5.00;;;0.83;;
3201;SDS011;34843;48.744;8.958;2022-09-09T13:26:58;7.40;;;0.80;;
3201;SDS011;34843;48.744;8.958;2022-09-09T13:29:26;1.93;;;0.70;;
3201;SDS011;34843;48.744;8.958;2022-09-09T13:31:52;1.17;;;0.77;;
3201;SDS011;34843;48.744;8.958;2022-09-09T13:34:30;2.30;;;0.60;;
3201;SDS011;34843;48.744;8.958;2022-09-09T13:37:05;2.17;;;0.60;;
3201;SDS011;34843;48.744;8.958;2022-09-09T13:39:35;2.70;;;0.83;;
3201;SDS011;34843;48.744;8.958;2022-09-09T13:42:02;4.77;;;0.70;;
3201;SDS011;34843;48.744;8.958;2022-09-09T13:44:29;1.03;;;0.70;;
3201;SDS011;34843;48.744;8.958;2022-09-09T13:47:03;1.10;;;0.63;;
3201;SDS011;34843;48.744;8.958;2022-09-09T13:49:29;3.60;;;1.00;;
3201;SDS011;34843;48.744;8.958;2022-09-09T13:52:04;6.37;;;0.80;;
3201;SDS011;34843;48.744;8.958;2022-09-09T13:54:38;1.53;;;0.50;;
3201;SDS011;34843;48.744;8.958;2022-09-09T13:57:04;2.37;;;0.70;;
3201;SDS011;34843;48.744;8.958;2022-09-09T13:59:30;4.40;;;0.80;;
3201;SDS011;34843;48.744;8.958;2022-09-09T14:01:56;1.83;;;0.50;;
3201;SDS011;34843;48.744;8.958;2022-09-09T14:04:22;2.40;;;0.70;;
3201;SDS011;34843;48.744;8.958;2022-09-09T14:06:48;1.73;;;0.50;;
3201;SDS011;34843;48.744;8.958;2022-09-09T14:09:15;2.00;;;0.60;;
3201;SDS011;34843;48.744;8.958;2022-09-09T14:11:43;1.10;;;0.60;;
3201;SDS011;34843;48.744;8.958;2022-09-09T14:14:10;2.57;;;0.87;;
3201;SDS011;34843;48.744;8.958;2022-09-09T14:16:36;0.70;;;0.60;;
3201;SDS011;34843;48.744;8.958;2022-09-09T14:19:02;1.80;;;0.70;;
3201;SDS011;34843;48.744;8.958;2022-09-09T14:21:28;2.53;;;0.50;;
3201;SDS011;34843;48.744;8.958;2022-09-09T14:23:54;0.97;;;0.50;;
3201;SDS011;34843;48.744;8.958;2022-09-09T14:26:20;2.03;;;0.60;;
3201;SDS011;34843;48.744;8.958;2022-09-09T14:28:47;0.60;;;0.53;;
3201;SDS011;34843;48.744;8.958;2022-09-09T14:31:13;2.60;;;0.80;;
3201;SDS011;34843;48.744;8.958;2022-09-09T14:33:39;4.33;;;0.93;;
3201;SDS011;34843;48.744;8.958;2022-09-09T14:36:05;1.53;;;0.60;;
3201;SDS011;34843;48.744;8.958;2022-09-09T14:38:32;1.37;;;0.50;;
3201;SDS011;34843;48.744;8.958;2022-09-09T14:41:00;0.90;;;0.60;;
3201;SDS011;34843;48.744;8.958;2022-09-09T14:43:28;0.70;;;0.70;;
3201;SDS011;34843;48.744;8.958;2022-09-09T14:45:55;1.53;;;0.63;;
3201;SDS011;34843;48.744;8.958;2022-09-09T14:48:20;1.80;;;0.57;;
3201;SDS011;34843;48.744;8.958;2022-09-09T14:50:46;2.17;;;0.80;;
3201;SDS011;34843;48.744;8.958;2022-09-09T14:53:12;1.87;;;0.63;;
3201;SDS011;34843;48.744;8.958;2022-09-09T14:55:37;1.93;;;0.70;;
3201;SDS011;34843;48.744;8.958;2022-09-09T14:58:04;2.30;;;1.30;;
3201;SDS011;34843;48.744;8.958;2022-09-09T15:00:31;1.57;;;0.60;;
3201;SDS011;34843;48.744;8.958;2022-09-09T15:02:57;0.70;;;0.60;;
3201;SDS011;34843;48.744;8.958;2022-09-09T15:05:22;2.10;;;0.80;;
3201;SDS011;34843;48.744;8.958;2022-09-09T15:07:49;1.10;;;0.60;;
3201;SDS011;34843;48.744;8.958;2022-09-09T15:10:14;1.20;;;0.70;;
3201;SDS011;34843;48.744;8.958;2022-09-09T15:12:42;1.07;;;0.60;;
3201;SDS011;34843;48.744;8.958;2022-09-09T15:15:08;1.03;;;0.67;;
3201;SDS011;34843;48.744;8.958;2022-09-09T15:17:34;1.13;;;0.60;;
3201;SDS011;34843;48.744;8.958;2022-09-09T15:20:01;2.10;;;0.70;;
3201;SDS011;34843;48.744;8.958;2022-09-09T15:22:27;3.37;;;0.70;;
3201;SDS011;34843;48.744;8.958;2022-09-09T15:24:53;2.20;;;0.80;;
3201;SDS011;34843;48.744;8.958;2022-09-09T15:27:19;2.07;;;0.70;;
3201;SDS011;34843;48.744;8.958;2022-09-09T15:29:44;1.53;;;0.70;;
3201;SDS011;34843;48.744;8.958;2022-09-09T15:32:10;1.37;;;0.70;;
3201;SDS011;34843;48.744;8.958;2022-09-09T15:34:35;1.27;;;0.80;;
3201;SDS011;34843;48.744;8.958;2022-09-09T15:37:01;1.60;;;0.70;;
3201;SDS011;34843;48.744;8.958;2022-09-09T15:39:27;1.77;;;0.70;;
3201;SDS011;34843;48.744;8.958;2022-09-09T15:41:52;2.80;;;1.77;;
3201;SDS011;34843;48.744;8.958;2022-09-09T15:44:18;1.37;;;0.70;;
3201;SDS011;34843;48.744;8.958;2022-09-09T15:49:17;1.00;;;0.60;;
3201;SDS011;34843;48.744;8.958;2022-09-09T15:51:45;2.13;;;0.63;;
3201;SDS011;34843;48.744;8.958;2022-09-09T15:54:16;2.03;;;0.70;;
3201;SDS011;34843;48.744;8.958;2022-09-09T15:56:43;1.47;;;0.80;;
3201;SDS011;34843;48.744;8.958;2022-09-09T15:59:10;0.90;;;0.70;;
3201;SDS011;34843;48.744;8.958;2022-09-09T16:01:36;1.77;;;0.80;;
3201;SDS011;34843;48.744;8.958;2022-09-09T16:04:03;2.50;;;0.70;;
3201;SDS011;34843;48.744;8.958;2022-09-09T16:06:29;2.50;;;1.20;;
3201;SDS011;34843;48.744;8.958;2022-09-09T16:08:56;0.97;;;0.97;;
3201;SDS011;34843;48.744;8.958;2022-09-09T16:11:23;1.37;;;0.80;;
3201;SDS011;34843;48.744;8.958;2022-09-09T16:13:51;3.23;;;0.70;;
3201;SDS011;34843;48.744;8.958;2022-09-09T16:16:18;1.87;;;1.13;;
3201;SDS011;34843;48.744;8.958;2022-09-09T16:18:50;2.20;;;0.80;;
3201;SDS011;34843;48.744;8.958;2022-09-09T16:21:20;1.00;;;0.77;;
3201;SDS011;34843;48.744;8.958;2022-09-09T16:23:49;1.73;;;0.80;;
3201;SDS011;34843;48.744;8.958;2022-09-09T16:26:15;0.90;;;0.60;;
3201;SDS011;34843;48.744;8.958;2022-09-09T16:28:42;1.33;;;0.60;;
3201;SDS011;34843;48.744;8.958;2022-09-09T16:31:09;0.70;;;0.50;;
3201;SDS011;34843;48.744;8.958;2022-09-09T16:33:38;0.67;;;0.60;;
3201;SDS011;34843;48.744;8.958;2022-09-09T16:36:05;3.97;;;1.00;;
3201;SDS011;34843;48.744;8.958;2022-09-09T16:38:36;0.77;;;0.77;;
3201;SDS011;34843;48.744;8.958;2022-09-09T16:41:02;11.20;;;4.67;;
3201;SDS011;34843;48.744;8.958;2022-09-09T16:43:30;8.97;;;3.53;;
3201;SDS011;34843;48.744;8.958;2022-09-09T16:45:56;22.13;;;5.53;;
3201;SDS011;34843;48.744;8.958;2022-09-09T16:48:22;0.60;;;0.57;;
3201;SDS011;34843;48.744;8.958;2022-09-09T16:50:47;2.07;;;0.50;;
3201;SDS011;34843;48.744;8.958;2022-09-09T16:53:13;0.60;;;0.50;;
3201;SDS011;34843;48.744;8.958;2022-09-09T16:55:40;0.70;;;0.60;;
3201;SDS011;34843;48.744;8.958;2022-09-09T16:58:15;0.60;;;0.50;;
3201;SDS011;34843;48.744;8.958;2022-09-09T17:00:40;4.33;;;0.60;;
3201;SDS011;34843;48.744;8.958;2022-09-09T17:03:06;1.73;;;0.60;;
3201;SDS011;34843;48.744;8.958;2022-09-09T17:05:39;0.60;;;0.60;;
3201;SDS011;34843;48.744;8.958;2022-09-09T17:08:05;0.60;;;0.50;;
3201;SDS011;34843;48.744;8.958;2022-09-09T17:10:30;1.93;;;0.60;;
3201;SDS011;34843;48.744;8.958;2022-09-09T17:12:57;1.10;;;0.70;;
3201;SDS011;34843;48.744;8.958;2022-09-09T17:15:22;4.30;;;0.80;;
3201;SDS011;34843;48.744;8.958;2022-09-09T17:17:48;1.43;;;0.70;;
3201;SDS011;34843;48.744;8.958;2022-09-09T17:20:18;2.70;;;0.80;;
3201;SDS011;34843;48.744;8.958;2022-09-09T17:22:44;2.40;;;0.60;;